Skip to main content

NOAA/GLERL Met Station at Chicago, IL

Previous 3 Hours (2 minute increments)
See also Previous 5 Days (top of hour)
Jump down to Data
Switch to [English][Metric]
Zoom: Click and drag, Pan: shift-click and drag, Unzoom: double-click, Unzoom All




See also 1-day windrose plot


NOAA/GLERL Met Station at Chicago, IL

Previous 3 Hours (2 minute increments)
See also Previous 5 Days (top of hour only)
Jump up to Graphs
Switch to [English][Metric]
                  Wind  Wind  Wind   Air   Dew   Rel
                   Spd   Gst   Dir  Temp    Pt   Hum
YYYY-MM-DD   CDT   kts   kts   deg     F     F     %
2024-05-25 14:50  12.8  13.8   125  61.9  54.1  75.3
2024-05-25 14:48  12.2  13.6   122  61.9  54.5  76.5
2024-05-25 14:46  12.4  13.2   125  61.9  53.9  74.8
2024-05-25 14:44  11.7  12.8   122  62.1  54.8  76.9
2024-05-25 14:42  11.5  12.1   123  61.9  53.8  74.5
2024-05-25 14:40  11.5  12.2   123  61.9  54.3  75.8
2024-05-25 14:38  12.1  12.6   130  61.9  54.0  75.2
2024-05-25 14:36  12.2  13.0   127  61.9  54.0  75.2
2024-05-25 14:34  11.5  12.2   119  61.9  54.5  76.5
2024-05-25 14:32  11.1  12.8   122  62.1  55.1  77.7
2024-05-25 14:30  11.1  12.1   121  61.9  54.7  77.0
2024-05-25 14:28  10.9  12.4   126  61.9  54.5  76.4
2024-05-25 14:26   9.9  11.5   118  61.7  54.0  75.5
2024-05-25 14:24  10.5  11.3   123  61.9  54.6  76.8
2024-05-25 14:22  10.7  11.7   122  61.7  54.2  76.2
2024-05-25 14:20  11.3  12.2   120  61.9  54.7  77.0
2024-05-25 14:18  10.9  11.9   118  61.9  55.1  78.3
2024-05-25 14:16  11.5  12.1   118  61.9  54.5  76.5
2024-05-25 14:14  10.5  12.2   116  61.9  54.3  76.0
2024-05-25 14:12  10.9  11.3   121  61.7  54.0  75.5
2024-05-25 14:10  11.1  11.9   116  61.7  53.8  74.9
2024-05-25 14:08  10.7  11.7   116  61.7  53.7  74.8
2024-05-25 14:06  11.7  12.4   121  61.7  54.0  75.5
2024-05-25 14:04  12.4  13.2   122  61.9  54.0  75.1
2024-05-25 14:02  11.9  12.4   124  61.7  53.7  74.8
2024-05-25 14:00  11.5  12.2   121  61.5  54.2  76.5
2024-05-25 13:58  12.8  13.8   120  61.5  54.0  75.9
2024-05-25 13:56  13.4  14.2   116  61.3  54.3  77.3
2024-05-25 13:54  12.2  13.4   110  61.2  54.5  78.6
2024-05-25 13:52  11.5  12.2   108  61.3  54.9  79.1
2024-05-25 13:50  11.7  12.4   110  61.3  53.9  76.3
2024-05-25 13:48  12.6  13.8   114  61.3  53.5  75.2
2024-05-25 13:46  13.0  14.0   116  61.3  54.0  76.6
2024-05-25 13:44  12.4  13.6   117  61.5  55.2  79.5
2024-05-25 13:42  13.0  14.2   116  61.2  54.3  77.9
2024-05-25 13:40  13.6  15.4   115  61.3  54.5  78.0
2024-05-25 13:38  14.8  15.7   118  61.5  54.4  77.3
2024-05-25 13:36  13.4  14.2   116  61.5  55.0  78.8
2024-05-25 13:34  12.2  13.0   110  61.3  54.4  77.7
2024-05-25 13:32  12.2  13.4   104  61.3  54.4  77.7
2024-05-25 13:30  13.6  14.6   105  61.5  54.2  76.7
2024-05-25 13:28  11.9  13.4   103  61.7  54.6  77.3
2024-05-25 13:26  11.1  12.2   101  61.7  53.0  72.7
2024-05-25 13:24  10.9  12.1    98  61.5  53.3  74.0
2024-05-25 13:22  10.7  11.7   100  61.5  54.0  75.9
2024-05-25 13:20  12.4  13.6   107  61.5  54.3  76.9
2024-05-25 13:18  11.9  13.6    98  61.9  52.0  69.8
2024-05-25 13:16  12.1  13.6    94  61.7  53.3  73.6
2024-05-25 13:14  12.4  13.4    97  61.9  54.0  75.2
2024-05-25 13:12  11.5  13.0    98  61.9  53.5  73.6
2024-05-25 13:10  10.7  11.7    98  61.9  53.6  73.9
2024-05-25 13:08  11.1  12.8    93  61.9  53.1  72.6
2024-05-25 13:06  11.1  11.9    94  61.9  53.0  72.4
2024-05-25 13:04  10.9  12.2    89  62.1  52.9  71.5
2024-05-25 13:02  10.3  11.5    87  62.1  52.6  70.7
2024-05-25 13:00   9.5  10.7    91  61.9  53.4  73.4
2024-05-25 12:58   9.5  10.7    93  61.9  53.7  74.1
2024-05-25 12:56   9.1  10.1    95  62.1  53.9  74.2
2024-05-25 12:54   8.2   8.9    88  62.2  53.5  72.7
2024-05-25 12:52   8.6   9.3    77  62.2  53.1  71.7
2024-05-25 12:50   8.4   9.1    69  62.2  53.5  72.7
2024-05-25 12:48   8.2   9.5    68  62.2  53.2  72.0
2024-05-25 12:46   7.6   8.9    60  62.1  52.4  70.2
2024-05-25 12:44   7.6   8.4    59  61.9  52.6  71.2
2024-05-25 12:42   7.2   8.2    58  61.7  54.1  75.8
2024-05-25 12:40   8.0   9.3    57  61.5  54.2  76.7
2024-05-25 12:38   8.0   8.7    54  61.5  54.0  76.0
2024-05-25 12:36   8.0   8.6    53  61.3  53.3  74.5
2024-05-25 12:34   8.0   8.7    51  61.3  53.9  76.3
2024-05-25 12:32   8.9   9.5    51  61.2  53.3  75.1
2024-05-25 12:30   9.1   9.7    54  61.3  53.8  75.9
2024-05-25 12:28   9.5  10.1    59  61.3  53.9  76.3
2024-05-25 12:26   9.1   9.7    59  61.3  54.1  76.9
2024-05-25 12:24   8.9   9.7    52  61.2  53.1  74.6
2024-05-25 12:22   8.9   9.7    51  61.0  54.4  78.8
2024-05-25 12:20   9.1  10.1    57  61.0  55.6  82.3
2024-05-25 12:18  10.3  11.1    66  61.2  55.3  80.9
2024-05-25 12:16  10.9  12.4    71  61.5  56.0  81.7
2024-05-25 12:14  11.5  12.2    72  61.7  55.7  80.3
2024-05-25 12:12  11.3  11.7    62  61.5  55.3  79.7
2024-05-25 12:10  11.3  11.9    49  61.5  54.3  76.8
2024-05-25 12:08  10.9  11.9    42  61.7  53.7  74.6
2024-05-25 12:06  11.1  12.2    38  61.7  53.0  72.9
2024-05-25 12:04  12.1  13.8    39  61.9  51.8  69.2
2024-05-25 12:02  11.9  12.8    51  61.5  54.0  76.1
2024-05-25 12:00  11.9  13.2    59  61.5  55.2  79.5
2024-05-25 11:58  11.3  12.4    60  61.9  56.0  80.9
2024-05-25 11:56  11.7  12.6    58  61.9  55.6  79.5
2024-05-25 11:54  10.3  11.1    55  61.9  55.6  79.7
2024-05-25 11:52  11.5  12.2    47  61.9  55.0  77.8
2024-05-25 11:50  11.1  11.7    43  61.7  54.7  77.4